Aviation Digital Data Service (ADDS)

Output produced by METARs form (1914 UTC 18 June 2019)
found at http://www.aviationweather.gov/metar/data/
 
MSLP 181850Z 22007KT 180V250 9999 FEW043 34/25 Q1009 A2982 NOSIG
TAF MSLP 181525Z 1818/1918 20008KT 9999 FEW030 FEW040CB SCT060 TX35/1818Z
TN25/1910Z 
     FM190000 VRB03KT 9999 FEW027 SCT070 
     FM190400 07003KT CAVOK
       
MSSS 181850Z 10003KT 9999 SCT043 31/21 Q1015 A2997
TAF MSSS 181525Z 1818/1918 18008KT 9999 SCT033 FEW040CB TX32/1820Z TN23/1912Z 
     FM190000 9999 FEW023 SCT040 
     FM190300 36004KT CAVOK